sensor_id;sensor_type;location;lat;lon;timestamp;P1;durP1;ratioP1;P2;durP2;ratioP2
31130;SDS011;20292;50.944;4.034;2022-11-28T00:02:08;8.07;;;4.07;;
31130;SDS011;20292;50.944;4.034;2022-11-28T00:04:34;8.18;;;4.38;;
31130;SDS011;20292;50.944;4.034;2022-11-28T00:06:59;6.57;;;4.22;;
31130;SDS011;20292;50.944;4.034;2022-11-28T00:09:25;8.10;;;4.50;;
31130;SDS011;20292;50.944;4.034;2022-11-28T00:11:50;6.07;;;3.65;;
31130;SDS011;20292;50.944;4.034;2022-11-28T00:14:17;7.70;;;4.53;;
31130;SDS011;20292;50.944;4.034;2022-11-28T00:16:44;7.40;;;4.13;;
31130;SDS011;20292;50.944;4.034;2022-11-28T00:19:10;8.13;;;4.22;;
31130;SDS011;20292;50.944;4.034;2022-11-28T00:21:38;8.75;;;4.72;;
31130;SDS011;20292;50.944;4.034;2022-11-28T00:24:04;8.75;;;4.55;;
31130;SDS011;20292;50.944;4.034;2022-11-28T00:26:32;7.45;;;4.30;;
31130;SDS011;20292;50.944;4.034;2022-11-28T00:28:59;9.52;;;4.88;;
31130;SDS011;20292;50.944;4.034;2022-11-28T00:31:30;7.30;;;4.50;;
31130;SDS011;20292;50.944;4.034;2022-11-28T00:33:58;6.47;;;4.40;;
31130;SDS011;20292;50.944;4.034;2022-11-28T00:36:25;10.93;;;4.85;;
31130;SDS011;20292;50.944;4.034;2022-11-28T00:38:51;7.47;;;4.53;;
31130;SDS011;20292;50.944;4.034;2022-11-28T00:41:18;7.85;;;4.90;;
31130;SDS011;20292;50.944;4.034;2022-11-28T00:43:48;11.13;;;5.22;;
31130;SDS011;20292;50.944;4.034;2022-11-28T00:46:15;9.73;;;4.90;;
31130;SDS011;20292;50.944;4.034;2022-11-28T00:48:42;10.43;;;5.10;;
31130;SDS011;20292;50.944;4.034;2022-11-28T00:53:38;9.50;;;5.18;;
31130;SDS011;20292;50.944;4.034;2022-11-28T00:56:06;9.43;;;5.35;;
31130;SDS011;20292;50.944;4.034;2022-11-28T00:58:34;9.02;;;5.40;;
31130;SDS011;20292;50.944;4.034;2022-11-28T01:01:06;8.13;;;5.00;;
31130;SDS011;20292;50.944;4.034;2022-11-28T01:03:33;7.07;;;4.88;;
31130;SDS011;20292;50.944;4.034;2022-11-28T01:05:58;11.10;;;5.40;;
31130;SDS011;20292;50.944;4.034;2022-11-28T01:08:24;9.48;;;5.93;;
31130;SDS011;20292;50.944;4.034;2022-11-28T01:10:49;9.02;;;4.93;;
31130;SDS011;20292;50.944;4.034;2022-11-28T01:13:15;12.38;;;5.45;;
31130;SDS011;20292;50.944;4.034;2022-11-28T01:15:40;7.93;;;5.00;;
31130;SDS011;20292;50.944;4.034;2022-11-28T01:18:06;9.25;;;5.63;;
31130;SDS011;20292;50.944;4.034;2022-11-28T01:20:32;8.23;;;5.32;;
31130;SDS011;20292;50.944;4.034;2022-11-28T01:22:57;11.20;;;6.28;;
31130;SDS011;20292;50.944;4.034;2022-11-28T01:25:23;8.85;;;5.57;;
31130;SDS011;20292;50.944;4.034;2022-11-28T01:27:49;8.80;;;5.72;;
31130;SDS011;20292;50.944;4.034;2022-11-28T01:30:14;9.95;;;5.95;;
31130;SDS011;20292;50.944;4.034;2022-11-28T01:32:40;8.23;;;5.43;;
31130;SDS011;20292;50.944;4.034;2022-11-28T01:35:06;9.35;;;5.45;;
31130;SDS011;20292;50.944;4.034;2022-11-28T01:37:32;12.07;;;5.50;;
31130;SDS011;20292;50.944;4.034;2022-11-28T01:39:57;10.38;;;5.55;;
31130;SDS011;20292;50.944;4.034;2022-11-28T01:42:23;8.35;;;5.30;;
31130;SDS011;20292;50.944;4.034;2022-11-28T01:47:14;9.68;;;5.68;;
31130;SDS011;20292;50.944;4.034;2022-11-28T01:49:47;9.35;;;6.13;;
31130;SDS011;20292;50.944;4.034;2022-11-28T01:52:15;12.18;;;5.68;;
31130;SDS011;20292;50.944;4.034;2022-11-28T01:54:45;8.80;;;5.75;;
31130;SDS011;20292;50.944;4.034;2022-11-28T01:57:16;9.98;;;5.63;;
31130;SDS011;20292;50.944;4.034;2022-11-28T02:02:39;10.60;;;5.40;;
31130;SDS011;20292;50.944;4.034;2022-11-28T02:05:10;12.07;;;5.65;;
31130;SDS011;20292;50.944;4.034;2022-11-28T02:07:36;10.10;;;5.20;;
31130;SDS011;20292;50.944;4.034;2022-11-28T02:10:03;9.40;;;5.80;;
31130;SDS011;20292;50.944;4.034;2022-11-28T02:12:40;8.35;;;5.65;;
31130;SDS011;20292;50.944;4.034;2022-11-28T02:15:29;8.05;;;5.57;;
31130;SDS011;20292;50.944;4.034;2022-11-28T02:26:43;7.47;;;5.32;;
31130;SDS011;20292;50.944;4.034;2022-11-28T02:34:58;12.60;;;5.63;;
31130;SDS011;20292;50.944;4.034;2022-11-28T02:37:56;7.25;;;5.53;;
31130;SDS011;20292;50.944;4.034;2022-11-28T02:40:42;11.20;;;5.82;;
31130;SDS011;20292;50.944;4.034;2022-11-28T02:49:43;10.02;;;5.95;;
31130;SDS011;20292;50.944;4.034;2022-11-28T02:52:14;8.20;;;6.20;;
31130;SDS011;20292;50.944;4.034;2022-11-28T02:54:45;9.50;;;6.60;;
31130;SDS011;20292;50.944;4.034;2022-11-28T02:57:12;9.48;;;5.90;;
31130;SDS011;20292;50.944;4.034;2022-11-28T03:02:39;8.57;;;6.35;;
31130;SDS011;20292;50.944;4.034;2022-11-28T03:05:04;9.75;;;5.65;;
31130;SDS011;20292;50.944;4.034;2022-11-28T03:13:06;7.30;;;5.72;;
31130;SDS011;20292;50.944;4.034;2022-11-28T03:15:49;6.82;;;5.72;;
31130;SDS011;20292;50.944;4.034;2022-11-28T03:18:38;8.82;;;5.65;;
31130;SDS011;20292;50.944;4.034;2022-11-28T03:24:00;7.78;;;5.30;;
31130;SDS011;20292;50.944;4.034;2022-11-28T03:26:36;7.65;;;5.53;;
31130;SDS011;20292;50.944;4.034;2022-11-28T03:31:55;7.70;;;5.63;;
31130;SDS011;20292;50.944;4.034;2022-11-28T03:34:26;7.93;;;5.43;;
31130;SDS011;20292;50.944;4.034;2022-11-28T03:36:57;9.00;;;6.03;;
31130;SDS011;20292;50.944;4.034;2022-11-28T03:39:28;8.60;;;6.25;;
31130;SDS011;20292;50.944;4.034;2022-11-28T03:42:09;9.85;;;6.18;;
31130;SDS011;20292;50.944;4.034;2022-11-28T03:44:54;8.90;;;6.55;;
31130;SDS011;20292;50.944;4.034;2022-11-28T03:47:33;8.88;;;6.50;;
31130;SDS011;20292;50.944;4.034;2022-11-28T03:50:05;11.43;;;6.78;;
31130;SDS011;20292;50.944;4.034;2022-11-28T03:52:36;9.90;;;7.40;;
31130;SDS011;20292;50.944;4.034;2022-11-28T03:55:10;9.65;;;6.88;;
31130;SDS011;20292;50.944;4.034;2022-11-28T03:57:44;10.00;;;7.78;;
31130;SDS011;20292;50.944;4.034;2022-11-28T04:00:22;10.93;;;7.80;;
31130;SDS011;20292;50.944;4.034;2022-11-28T04:03:09;14.63;;;9.23;;
31130;SDS011;20292;50.944;4.034;2022-11-28T04:08:40;13.40;;;9.77;;
31130;SDS011;20292;50.944;4.034;2022-11-28T04:11:15;14.85;;;10.15;;
31130;SDS011;20292;50.944;4.034;2022-11-28T04:14:09;16.77;;;10.57;;
31130;SDS011;20292;50.944;4.034;2022-11-28T04:19:22;19.17;;;12.07;;
31130;SDS011;20292;50.944;4.034;2022-11-28T04:22:09;18.17;;;12.40;;
31130;SDS011;20292;50.944;4.034;2022-11-28T04:24:42;20.95;;;12.18;;
31130;SDS011;20292;50.944;4.034;2022-11-28T04:27:20;21.98;;;14.32;;
31130;SDS011;20292;50.944;4.034;2022-11-28T04:29:53;22.83;;;14.20;;
31130;SDS011;20292;50.944;4.034;2022-11-28T04:32:21;23.08;;;14.80;;
31130;SDS011;20292;50.944;4.034;2022-11-28T04:34:50;25.75;;;15.13;;
31130;SDS011;20292;50.944;4.034;2022-11-28T04:37:19;23.58;;;15.38;;
31130;SDS011;20292;50.944;4.034;2022-11-28T04:39:47;24.45;;;16.70;;
31130;SDS011;20292;50.944;4.034;2022-11-28T04:42:15;28.30;;;15.98;;
31130;SDS011;20292;50.944;4.034;2022-11-28T04:44:50;24.00;;;15.88;;
31130;SDS011;20292;50.944;4.034;2022-11-28T04:47:23;24.50;;;16.40;;
31130;SDS011;20292;50.944;4.034;2022-11-28T04:49:49;28.58;;;17.05;;
31130;SDS011;20292;50.944;4.034;2022-11-28T04:52:28;25.48;;;16.65;;
31130;SDS011;20292;50.944;4.034;2022-11-28T04:55:25;23.75;;;16.65;;
31130;SDS011;20292;50.944;4.034;2022-11-28T05:00:49;27.52;;;17.10;;
31130;SDS011;20292;50.944;4.034;2022-11-28T05:03:18;27.92;;;17.58;;
31130;SDS011;20292;50.944;4.034;2022-11-28T05:05:45;31.38;;;18.08;;
31130;SDS011;20292;50.944;4.034;2022-11-28T05:08:13;31.27;;;18.70;;
31130;SDS011;20292;50.944;4.034;2022-11-28T05:10:39;29.63;;;18.65;;
31130;SDS011;20292;50.944;4.034;2022-11-28T05:13:05;28.27;;;19.20;;
31130;SDS011;20292;50.944;4.034;2022-11-28T05:15:31;35.25;;;22.35;;
31130;SDS011;20292;50.944;4.034;2022-11-28T05:17:56;32.95;;;19.60;;
31130;SDS011;20292;50.944;4.034;2022-11-28T05:20:22;32.13;;;20.00;;
31130;SDS011;20292;50.944;4.034;2022-11-28T05:22:48;33.67;;;19.30;;
31130;SDS011;20292;50.944;4.034;2022-11-28T05:25:14;34.97;;;20.83;;
31130;SDS011;20292;50.944;4.034;2022-11-28T05:27:40;36.67;;;21.92;;
31130;SDS011;20292;50.944;4.034;2022-11-28T05:30:05;36.35;;;20.92;;
31130;SDS011;20292;50.944;4.034;2022-11-28T05:32:32;37.10;;;21.73;;
31130;SDS011;20292;50.944;4.034;2022-11-28T05:34:57;34.55;;;21.98;;
31130;SDS011;20292;50.944;4.034;2022-11-28T05:37:23;35.20;;;21.63;;
31130;SDS011;20292;50.944;4.034;2022-11-28T05:39:49;40.50;;;23.77;;
31130;SDS011;20292;50.944;4.034;2022-11-28T05:42:15;42.60;;;24.35;;
31130;SDS011;20292;50.944;4.034;2022-11-28T05:44:41;37.42;;;22.92;;
31130;SDS011;20292;50.944;4.034;2022-11-28T05:47:07;36.33;;;23.42;;
31130;SDS011;20292;50.944;4.034;2022-11-28T05:49:32;40.38;;;22.92;;
31130;SDS011;20292;50.944;4.034;2022-11-28T05:51:58;40.17;;;23.63;;
31130;SDS011;20292;50.944;4.034;2022-11-28T05:54:24;38.90;;;23.50;;
31130;SDS011;20292;50.944;4.034;2022-11-28T05:56:49;39.03;;;24.15;;
31130;SDS011;20292;50.944;4.034;2022-11-28T05:59:15;40.13;;;23.35;;
31130;SDS011;20292;50.944;4.034;2022-11-28T06:01:41;41.60;;;25.08;;
31130;SDS011;20292;50.944;4.034;2022-11-28T06:04:06;40.33;;;23.85;;
31130;SDS011;20292;50.944;4.034;2022-11-28T06:06:33;34.88;;;23.02;;
31130;SDS011;20292;50.944;4.034;2022-11-28T06:08:59;36.67;;;22.40;;
31130;SDS011;20292;50.944;4.034;2022-11-28T06:11:26;37.30;;;22.00;;
31130;SDS011;20292;50.944;4.034;2022-11-28T06:13:53;36.25;;;22.08;;
31130;SDS011;20292;50.944;4.034;2022-11-28T06:16:20;32.22;;;21.10;;
31130;SDS011;20292;50.944;4.034;2022-11-28T06:18:51;33.15;;;20.58;;
31130;SDS011;20292;50.944;4.034;2022-11-28T06:21:18;33.28;;;20.83;;
31130;SDS011;20292;50.944;4.034;2022-11-28T06:23:44;32.03;;;19.65;;
31130;SDS011;20292;50.944;4.034;2022-11-28T06:26:10;29.10;;;19.80;;
31130;SDS011;20292;50.944;4.034;2022-11-28T06:28:38;34.25;;;19.67;;
31130;SDS011;20292;50.944;4.034;2022-11-28T06:31:07;34.65;;;20.45;;
31130;SDS011;20292;50.944;4.034;2022-11-28T06:33:37;29.70;;;18.33;;
31130;SDS011;20292;50.944;4.034;2022-11-28T06:36:03;27.05;;;17.80;;
31130;SDS011;20292;50.944;4.034;2022-11-28T06:38:30;29.05;;;18.42;;
31130;SDS011;20292;50.944;4.034;2022-11-28T06:40:56;23.60;;;16.15;;
31130;SDS011;20292;50.944;4.034;2022-11-28T06:43:23;27.02;;;16.80;;
31130;SDS011;20292;50.944;4.034;2022-11-28T06:45:49;25.25;;;16.77;;
31130;SDS011;20292;50.944;4.034;2022-11-28T06:48:15;25.10;;;16.50;;
31130;SDS011;20292;50.944;4.034;2022-11-28T06:50:40;27.17;;;18.17;;
31130;SDS011;20292;50.944;4.034;2022-11-28T06:53:06;26.40;;;18.17;;
31130;SDS011;20292;50.944;4.034;2022-11-28T06:55:32;28.55;;;18.38;;
31130;SDS011;20292;50.944;4.034;2022-11-28T06:57:57;28.17;;;18.27;;
31130;SDS011;20292;50.944;4.034;2022-11-28T07:00:23;29.48;;;18.80;;
31130;SDS011;20292;50.944;4.034;2022-11-28T07:02:48;28.25;;;18.15;;
31130;SDS011;20292;50.944;4.034;2022-11-28T07:05:14;27.50;;;18.10;;
31130;SDS011;20292;50.944;4.034;2022-11-28T07:07:40;29.98;;;19.35;;
31130;SDS011;20292;50.944;4.034;2022-11-28T07:10:07;29.50;;;19.40;;
31130;SDS011;20292;50.944;4.034;2022-11-28T07:12:32;31.17;;;20.15;;
31130;SDS011;20292;50.944;4.034;2022-11-28T07:14:58;35.38;;;20.27;;
31130;SDS011;20292;50.944;4.034;2022-11-28T07:17:24;35.47;;;20.25;;
31130;SDS011;20292;50.944;4.034;2022-11-28T07:19:49;32.60;;;19.77;;
31130;SDS011;20292;50.944;4.034;2022-11-28T07:22:15;33.13;;;21.27;;
31130;SDS011;20292;50.944;4.034;2022-11-28T07:24:40;31.27;;;20.02;;
31130;SDS011;20292;50.944;4.034;2022-11-28T07:27:06;30.17;;;19.77;;
31130;SDS011;20292;50.944;4.034;2022-11-28T07:29:31;36.20;;;22.20;;
31130;SDS011;20292;50.944;4.034;2022-11-28T07:32:03;33.97;;;21.05;;
31130;SDS011;20292;50.944;4.034;2022-11-28T07:34:31;32.78;;;21.55;;
31130;SDS011;20292;50.944;4.034;2022-11-28T07:36:57;31.80;;;21.15;;
31130;SDS011;20292;50.944;4.034;2022-11-28T07:39:23;36.90;;;23.55;;
31130;SDS011;20292;50.944;4.034;2022-11-28T07:41:48;39.10;;;22.88;;
31130;SDS011;20292;50.944;4.034;2022-11-28T07:44:14;32.28;;;22.67;;
31130;SDS011;20292;50.944;4.034;2022-11-28T07:46:42;44.42;;;25.75;;
31130;SDS011;20292;50.944;4.034;2022-11-28T07:49:08;37.05;;;22.27;;
31130;SDS011;20292;50.944;4.034;2022-11-28T07:51:34;37.42;;;24.13;;
31130;SDS011;20292;50.944;4.034;2022-11-28T07:54:01;35.67;;;21.98;;
31130;SDS011;20292;50.944;4.034;2022-11-28T07:56:28;40.90;;;23.65;;
31130;SDS011;20292;50.944;4.034;2022-11-28T07:58:55;41.55;;;23.35;;
31130;SDS011;20292;50.944;4.034;2022-11-28T08:01:25;34.05;;;22.15;;
31130;SDS011;20292;50.944;4.034;2022-11-28T08:03:54;40.85;;;22.83;;
31130;SDS011;20292;50.944;4.034;2022-11-28T08:06:21;41.15;;;23.42;;
31130;SDS011;20292;50.944;4.034;2022-11-28T08:08:48;39.45;;;23.50;;
31130;SDS011;20292;50.944;4.034;2022-11-28T08:11:16;44.33;;;25.00;;
31130;SDS011;20292;50.944;4.034;2022-11-28T08:13:42;39.42;;;24.58;;
31130;SDS011;20292;50.944;4.034;2022-11-28T08:16:12;41.80;;;23.48;;
31130;SDS011;20292;50.944;4.034;2022-11-28T08:18:40;40.42;;;23.45;;
31130;SDS011;20292;50.944;4.034;2022-11-28T08:21:16;36.85;;;22.60;;
31130;SDS011;20292;50.944;4.034;2022-11-28T08:23:47;42.20;;;23.50;;
31130;SDS011;20292;50.944;4.034;2022-11-28T08:26:16;39.33;;;22.00;;
31130;SDS011;20292;50.944;4.034;2022-11-28T08:28:43;40.65;;;23.70;;
31130;SDS011;20292;50.944;4.034;2022-11-28T08:31:10;37.92;;;22.90;;
31130;SDS011;20292;50.944;4.034;2022-11-28T08:33:41;39.55;;;22.67;;
31130;SDS011;20292;50.944;4.034;2022-11-28T08:36:07;40.53;;;22.73;;
31130;SDS011;20292;50.944;4.034;2022-11-28T08:38:35;40.67;;;21.65;;
31130;SDS011;20292;50.944;4.034;2022-11-28T08:41:02;42.10;;;23.08;;
31130;SDS011;20292;50.944;4.034;2022-11-28T08:43:28;39.42;;;22.65;;
31130;SDS011;20292;50.944;4.034;2022-11-28T08:45:54;42.55;;;22.08;;
31130;SDS011;20292;50.944;4.034;2022-11-28T08:48:20;40.30;;;22.63;;
31130;SDS011;20292;50.944;4.034;2022-11-28T08:50:46;40.85;;;22.73;;
31130;SDS011;20292;50.944;4.034;2022-11-28T08:53:12;39.80;;;22.48;;
31130;SDS011;20292;50.944;4.034;2022-11-28T08:55:41;38.42;;;22.08;;
31130;SDS011;20292;50.944;4.034;2022-11-28T08:58:08;41.05;;;21.30;;
31130;SDS011;20292;50.944;4.034;2022-11-28T09:00:35;41.42;;;22.00;;
31130;SDS011;20292;50.944;4.034;2022-11-28T09:03:00;46.90;;;23.45;;
31130;SDS011;20292;50.944;4.034;2022-11-28T09:05:26;41.75;;;21.40;;
31130;SDS011;20292;50.944;4.034;2022-11-28T09:07:53;38.80;;;20.55;;
31130;SDS011;20292;50.944;4.034;2022-11-28T09:10:19;40.70;;;20.73;;
31130;SDS011;20292;50.944;4.034;2022-11-28T09:12:45;37.20;;;18.58;;
31130;SDS011;20292;50.944;4.034;2022-11-28T09:15:10;38.05;;;19.20;;
31130;SDS011;20292;50.944;4.034;2022-11-28T09:17:36;39.13;;;19.52;;
31130;SDS011;20292;50.944;4.034;2022-11-28T09:20:02;41.60;;;18.80;;
31130;SDS011;20292;50.944;4.034;2022-11-28T09:22:28;33.65;;;18.05;;
31130;SDS011;20292;50.944;4.034;2022-11-28T09:24:54;39.65;;;19.50;;
31130;SDS011;20292;50.944;4.034;2022-11-28T09:27:19;41.22;;;18.83;;
31130;SDS011;20292;50.944;4.034;2022-11-28T09:29:45;40.60;;;19.15;;
31130;SDS011;20292;50.944;4.034;2022-11-28T09:32:10;39.45;;;18.45;;
31130;SDS011;20292;50.944;4.034;2022-11-28T09:34:36;39.85;;;19.35;;
31130;SDS011;20292;50.944;4.034;2022-11-28T09:37:02;37.15;;;18.65;;
31130;SDS011;20292;50.944;4.034;2022-11-28T09:39:27;37.72;;;18.95;;
31130;SDS011;20292;50.944;4.034;2022-11-28T09:44:53;37.90;;;19.08;;
31130;SDS011;20292;50.944;4.034;2022-11-28T09:47:26;39.58;;;18.92;;
31130;SDS011;20292;50.944;4.034;2022-11-28T09:50:05;37.33;;;19.90;;
31130;SDS011;20292;50.944;4.034;2022-11-28T10:03:48;38.72;;;19.42;;
31130;SDS011;20292;50.944;4.034;2022-11-28T10:06:26;39.90;;;18.63;;
31130;SDS011;20292;50.944;4.034;2022-11-28T10:09:43;42.53;;;19.92;;
31130;SDS011;20292;50.944;4.034;2022-11-28T10:20:29;37.15;;;19.20;;
31130;SDS011;20292;50.944;4.034;2022-11-28T10:22:59;42.47;;;19.35;;
31130;SDS011;20292;50.944;4.034;2022-11-28T10:25:37;40.63;;;19.33;;
31130;SDS011;20292;50.944;4.034;2022-11-28T10:28:15;42.47;;;19.48;;
31130;SDS011;20292;50.944;4.034;2022-11-28T10:30:46;38.85;;;19.58;;
31130;SDS011;20292;50.944;4.034;2022-11-28T10:35:55;37.65;;;19.42;;
31130;SDS011;20292;50.944;4.034;2022-11-28T10:38:23;43.50;;;19.75;;
31130;SDS011;20292;50.944;4.034;2022-11-28T10:40:55;37.70;;;19.70;;
31130;SDS011;20292;50.944;4.034;2022-11-28T10:43:59;41.67;;;20.23;;
31130;SDS011;20292;50.944;4.034;2022-11-28T10:52:56;41.40;;;21.45;;
31130;SDS011;20292;50.944;4.034;2022-11-28T10:55:06;41.63;;;21.20;;
31130;SDS011;20292;50.944;4.034;2022-11-28T10:58:18;42.40;;;21.30;;
31130;SDS011;20292;50.944;4.034;2022-11-28T11:00:45;44.95;;;21.75;;
31130;SDS011;20292;50.944;4.034;2022-11-28T11:03:14;48.10;;;22.10;;
31130;SDS011;20292;50.944;4.034;2022-11-28T11:05:42;44.40;;;21.77;;
31130;SDS011;20292;50.944;4.034;2022-11-28T11:08:24;44.38;;;22.00;;
31130;SDS011;20292;50.944;4.034;2022-11-28T11:16:20;41.92;;;22.33;;
31130;SDS011;20292;50.944;4.034;2022-11-28T11:21:15;52.95;;;23.30;;
31130;SDS011;20292;50.944;4.034;2022-11-28T11:23:45;46.75;;;22.08;;
31130;SDS011;20292;50.944;4.034;2022-11-28T11:26:18;47.40;;;23.65;;
31130;SDS011;20292;50.944;4.034;2022-11-28T11:28:49;49.58;;;23.25;;
31130;SDS011;20292;50.944;4.034;2022-11-28T11:33:46;47.08;;;24.20;;
31130;SDS011;20292;50.944;4.034;2022-11-28T11:36:29;52.53;;;23.58;;
31130;SDS011;20292;50.944;4.034;2022-11-28T11:39:03;50.90;;;23.85;;
31130;SDS011;20292;50.944;4.034;2022-11-28T11:41:35;48.65;;;24.02;;
31130;SDS011;20292;50.944;4.034;2022-11-28T11:46:49;49.15;;;23.85;;
31130;SDS011;20292;50.944;4.034;2022-11-28T11:49:48;54.80;;;27.60;;
31130;SDS011;20292;50.944;4.034;2022-11-28T11:52:20;46.10;;;21.38;;
31130;SDS011;20292;50.944;4.034;2022-11-28T12:00:02;48.20;;;20.90;;
31130;SDS011;20292;50.944;4.034;2022-11-28T12:02:34;40.72;;;21.55;;
31130;SDS011;20292;50.944;4.034;2022-11-28T12:05:20;52.72;;;21.70;;
31130;SDS011;20292;50.944;4.034;2022-11-28T12:11:15;45.28;;;19.40;;
31130;SDS011;20292;50.944;4.034;2022-11-28T12:14:02;41.13;;;18.90;;
31130;SDS011;20292;50.944;4.034;2022-11-28T12:25:51;40.45;;;17.90;;
31130;SDS011;20292;50.944;4.034;2022-11-28T12:34:00;40.83;;;16.05;;
31130;SDS011;20292;50.944;4.034;2022-11-28T12:39:35;38.05;;;15.45;;
31130;SDS011;20292;50.944;4.034;2022-11-28T12:42:26;40.78;;;15.63;;
31130;SDS011;20292;50.944;4.034;2022-11-28T12:52:54;43.45;;;17.13;;
31130;SDS011;20292;50.944;4.034;2022-11-28T12:58:42;37.20;;;16.98;;
31130;SDS011;20292;50.944;4.034;2022-11-28T13:10:13;46.20;;;16.85;;
31130;SDS011;20292;50.944;4.034;2022-11-28T13:24:15;59.90;;;19.25;;
31130;SDS011;20292;50.944;4.034;2022-11-28T13:30:21;51.28;;;17.88;;
31130;SDS011;20292;50.944;4.034;2022-11-28T13:33:00;53.92;;;17.75;;
31130;SDS011;20292;50.944;4.034;2022-11-28T13:38:16;63.22;;;18.77;;
31130;SDS011;20292;50.944;4.034;2022-11-28T13:41:03;62.90;;;18.48;;
31130;SDS011;20292;50.944;4.034;2022-11-28T13:43:42;52.38;;;17.27;;
31130;SDS011;20292;50.944;4.034;2022-11-28T13:46:23;56.20;;;17.23;;
31130;SDS011;20292;50.944;4.034;2022-11-28T13:48:49;50.55;;;17.50;;
31130;SDS011;20292;50.944;4.034;2022-11-28T13:51:21;49.15;;;19.02;;
31130;SDS011;20292;50.944;4.034;2022-11-28T13:53:50;56.67;;;19.35;;
31130;SDS011;20292;50.944;4.034;2022-11-28T13:56:41;55.80;;;17.80;;
31130;SDS011;20292;50.944;4.034;2022-11-28T13:59:18;68.82;;;19.55;;
31130;SDS011;20292;50.944;4.034;2022-11-28T14:01:50;63.55;;;18.70;;
31130;SDS011;20292;50.944;4.034;2022-11-28T14:04:24;55.20;;;18.27;;
31130;SDS011;20292;50.944;4.034;2022-11-28T14:07:00;50.88;;;18.33;;
31130;SDS011;20292;50.944;4.034;2022-11-28T14:15:39;57.65;;;18.63;;
31130;SDS011;20292;50.944;4.034;2022-11-28T14:20:58;58.30;;;18.20;;
31130;SDS011;20292;50.944;4.034;2022-11-28T14:23:42;57.25;;;19.23;;
31130;SDS011;20292;50.944;4.034;2022-11-28T14:26:22;55.17;;;19.25;;
31130;SDS011;20292;50.944;4.034;2022-11-28T14:28:54;48.55;;;15.27;;
31130;SDS011;20292;50.944;4.034;2022-11-28T14:34:00;47.80;;;14.45;;
31130;SDS011;20292;50.944;4.034;2022-11-28T14:44:45;42.92;;;14.45;;
31130;SDS011;20292;50.944;4.034;2022-11-28T14:52:33;42.15;;;13.60;;
31130;SDS011;20292;50.944;4.034;2022-11-28T14:54:59;40.83;;;13.80;;
31130;SDS011;20292;50.944;4.034;2022-11-28T14:57:29;50.88;;;17.23;;
31130;SDS011;20292;50.944;4.034;2022-11-28T15:00:02;40.20;;;13.73;;
31130;SDS011;20292;50.944;4.034;2022-11-28T15:02:52;46.25;;;14.60;;
31130;SDS011;20292;50.944;4.034;2022-11-28T15:05:38;41.35;;;13.85;;
31130;SDS011;20292;50.944;4.034;2022-11-28T15:10:55;42.33;;;13.13;;
31130;SDS011;20292;50.944;4.034;2022-11-28T15:16:35;43.38;;;13.82;;
31130;SDS011;20292;50.944;4.034;2022-11-28T15:19:07;59.03;;;15.52;;
31130;SDS011;20292;50.944;4.034;2022-11-28T15:21:47;40.95;;;13.88;;
31130;SDS011;20292;50.944;4.034;2022-11-28T15:24:16;40.53;;;15.50;;
31130;SDS011;20292;50.944;4.034;2022-11-28T15:31:46;54.42;;;15.00;;
31130;SDS011;20292;50.944;4.034;2022-11-28T15:34:19;41.78;;;14.32;;
31130;SDS011;20292;50.944;4.034;2022-11-28T15:36:57;42.20;;;14.07;;
31130;SDS011;20292;50.944;4.034;2022-11-28T15:39:26;35.92;;;14.18;;
31130;SDS011;20292;50.944;4.034;2022-11-28T15:41:58;44.17;;;14.07;;
31130;SDS011;20292;50.944;4.034;2022-11-28T15:44:25;43.15;;;14.70;;
31130;SDS011;20292;50.944;4.034;2022-11-28T15:46:52;43.63;;;15.90;;
31130;SDS011;20292;50.944;4.034;2022-11-28T15:51:55;43.17;;;15.25;;
31130;SDS011;20292;50.944;4.034;2022-11-28T15:57:00;43.75;;;15.05;;
31130;SDS011;20292;50.944;4.034;2022-11-28T15:59:26;53.55;;;15.65;;
31130;SDS011;20292;50.944;4.034;2022-11-28T16:01:53;43.83;;;16.15;;
31130;SDS011;20292;50.944;4.034;2022-11-28T16:04:22;45.53;;;16.58;;
31130;SDS011;20292;50.944;4.034;2022-11-28T16:06:49;43.95;;;15.23;;
31130;SDS011;20292;50.944;4.034;2022-11-28T16:11:42;47.47;;;16.45;;
31130;SDS011;20292;50.944;4.034;2022-11-28T16:14:15;51.38;;;16.63;;
31130;SDS011;20292;50.944;4.034;2022-11-28T16:16:53;51.80;;;16.98;;
31130;SDS011;20292;50.944;4.034;2022-11-28T16:24:27;48.78;;;16.92;;
31130;SDS011;20292;50.944;4.034;2022-11-28T16:26:56;47.92;;;17.73;;
31130;SDS011;20292;50.944;4.034;2022-11-28T16:29:26;61.15;;;19.48;;
31130;SDS011;20292;50.944;4.034;2022-11-28T16:31:53;60.45;;;21.38;;
31130;SDS011;20292;50.944;4.034;2022-11-28T16:34:43;58.08;;;21.08;;
31130;SDS011;20292;50.944;4.034;2022-11-28T16:37:12;51.03;;;19.48;;
31130;SDS011;20292;50.944;4.034;2022-11-28T16:39:41;56.00;;;19.08;;
31130;SDS011;20292;50.944;4.034;2022-11-28T16:42:12;56.65;;;19.92;;
31130;SDS011;20292;50.944;4.034;2022-11-28T16:44:40;58.25;;;18.27;;
31130;SDS011;20292;50.944;4.034;2022-11-28T16:47:18;50.90;;;18.25;;
31130;SDS011;20292;50.944;4.034;2022-11-28T16:58:10;52.92;;;18.75;;
31130;SDS011;20292;50.944;4.034;2022-11-28T17:00:42;48.42;;;18.02;;
31130;SDS011;20292;50.944;4.034;2022-11-28T17:03:19;59.70;;;19.48;;
31130;SDS011;20292;50.944;4.034;2022-11-28T17:06:08;50.03;;;18.50;;
31130;SDS011;20292;50.944;4.034;2022-11-28T17:08:43;52.53;;;18.15;;
31130;SDS011;20292;50.944;4.034;2022-11-28T17:11:09;52.83;;;18.45;;
31130;SDS011;20292;50.944;4.034;2022-11-28T17:13:35;51.63;;;18.42;;
31130;SDS011;20292;50.944;4.034;2022-11-28T17:16:01;58.65;;;18.35;;
31130;SDS011;20292;50.944;4.034;2022-11-28T17:18:26;47.33;;;16.85;;
31130;SDS011;20292;50.944;4.034;2022-11-28T17:20:52;52.08;;;17.25;;
31130;SDS011;20292;50.944;4.034;2022-11-28T17:23:18;48.10;;;16.55;;
31130;SDS011;20292;50.944;4.034;2022-11-28T17:25:49;54.30;;;17.20;;
31130;SDS011;20292;50.944;4.034;2022-11-28T17:28:15;52.13;;;16.48;;
31130;SDS011;20292;50.944;4.034;2022-11-28T17:30:41;42.88;;;16.52;;
31130;SDS011;20292;50.944;4.034;2022-11-28T17:33:06;53.33;;;16.95;;
31130;SDS011;20292;50.944;4.034;2022-11-28T17:35:35;60.20;;;18.77;;
31130;SDS011;20292;50.944;4.034;2022-11-28T17:38:04;59.55;;;16.90;;
31130;SDS011;20292;50.944;4.034;2022-11-28T17:40:30;52.50;;;17.05;;
31130;SDS011;20292;50.944;4.034;2022-11-28T17:43:00;54.40;;;19.10;;
31130;SDS011;20292;50.944;4.034;2022-11-28T17:45:31;46.13;;;16.58;;
31130;SDS011;20292;50.944;4.034;2022-11-28T17:47:59;49.67;;;17.05;;
31130;SDS011;20292;50.944;4.034;2022-11-28T17:50:24;47.47;;;18.35;;
31130;SDS011;20292;50.944;4.034;2022-11-28T17:52:50;53.47;;;17.95;;
31130;SDS011;20292;50.944;4.034;2022-11-28T17:55:16;53.70;;;19.55;;
31130;SDS011;20292;50.944;4.034;2022-11-28T17:57:44;54.58;;;19.05;;
31130;SDS011;20292;50.944;4.034;2022-11-28T18:00:10;53.90;;;19.35;;
31130;SDS011;20292;50.944;4.034;2022-11-28T18:02:39;63.17;;;19.92;;
31130;SDS011;20292;50.944;4.034;2022-11-28T18:05:05;59.85;;;19.35;;
31130;SDS011;20292;50.944;4.034;2022-11-28T18:07:31;68.43;;;19.95;;
31130;SDS011;20292;50.944;4.034;2022-11-28T18:09:57;55.50;;;19.13;;
31130;SDS011;20292;50.944;4.034;2022-11-28T18:12:22;61.03;;;18.95;;
31130;SDS011;20292;50.944;4.034;2022-11-28T18:14:48;55.20;;;19.17;;
31130;SDS011;20292;50.944;4.034;2022-11-28T18:17:13;55.17;;;17.30;;
31130;SDS011;20292;50.944;4.034;2022-11-28T18:19:39;57.35;;;18.05;;
31130;SDS011;20292;50.944;4.034;2022-11-28T18:22:04;46.88;;;17.80;;